Hlavní strana
METAR-TAF:

METAR-TAF

Letiště :

Stockholm, Švédsko

zeměpisná šířka: 59-21N, zeměpisná délka: 017-57E, výška: 14 m

Aktuální stav počasí

Zpráva byla vytvořena před 22 minutami, v 21:20 UTC
Jihojihovýchodní vítr 5 kt
Teplota 5°C
Vlhkost vzduchu 87%
Tlak 1006 hPa
Viditelnost 10 km a více

METAR: ESSB 122120Z AUTO 16005KT 9999 NCD 05/03 Q1006

Čas: 22:42 (21:42 UTC)

Předpověď počasí

Zpráva byla vytvořena před 4 hodinami a 12 minutami, v 17:30 UTC
Předpověď platná od 12 v 18 UTC do 12 v 21 UTC
Jižní vítr 9 kt
Viditelnost 10 km a více
Oblačno až skoro zataženo ve výšce 3000 ft
Pravděpodobnost 40%
od 12 v 18 UTC do 12 v 20 UTC
Viditelnost: 4500 m
Oblačno až skoro zataženo ve výšce 900 ft
slabý déšť, mrholení, kouřmo

TAF: ESSB 121730Z 1218/1221 17009KT 9999 BKN030 PROB40 1218/1220 4500 -RADZ BR BKN009

Stav a předpovědi počasí z více než 4 000 letišť (zprávy METAR a TAF).

Červené a žluté tečky na mapě představují dostupné meteorologické stanice.

Když kurzor umístíte na tečku, zobrazí se název stanice.

Pak kliknutím zobrazíte stav a předpověď počasí.

Chcete-li změnit mapu, kliknutím na zelené tlačítko se znaménkem +mapu přiblížíte, kliknutím na zelené tlačítko se znaménkem – mapu oddálíte a kliknutím na zelené šipky přejdete na sousední mapy.


METAR-TAF: